Time;durP1;ratioP1;P1;durP2;ratioP2;P2;SDS_P1;SDS_P2;PMS_P1;PMS_P2;Temp;Humidity;BMP_temperature;BMP_pressure;BME280_temperature;BME280_humidity;BME280_pressure;Samples;Min_cycle;Max_cycle;Signal;HPM_P1;HPM_P2
2023/03/15 00:01:13;;;;;;;15.45;10.18;;;28.10;87.80;;;;;;5020131;28;20013;-50
2023/03/15 00:03:41;;;;;;;17.92;10.25;;;28.10;87.90;;;;;;5028322;28;20206;-57
2023/03/15 00:06:17;;;;;;;15.18;9.50;;;28.10;88.10;;;;;;5034483;28;20021;-51
2023/03/15 00:08:46;;;;;;;16.05;9.93;;;28.10;87.80;;;;;;5047859;28;20250;-52
2023/03/15 00:11:14;;;;;;;15.85;8.93;;;28.10;87.30;;;;;;5047248;28;20041;-52
2023/03/15 00:13:44;;;;;;;12.77;9.23;;;28.10;87.30;;;;;;5047500;28;20310;-46
2023/03/15 00:16:16;;;;;;;13.70;8.85;;;28.10;87.30;;;;;;5031623;28;20100;-47
2023/03/15 00:18:45;;;;;;;14.82;8.82;;;28.10;87.40;;;;;;5046389;28;20120;-47
2023/03/15 00:21:13;;;;;;;16.30;8.73;;;28.10;87.40;;;;;;5042859;28;20044;-49
2023/03/15 00:23:39;;;;;;;16.38;8.90;;;28.10;87.40;;;;;;5037844;28;20041;-49
2023/03/15 00:26:15;;;;;;;14.80;8.75;;;28.10;87.70;;;;;;5048319;28;20021;-47
2023/03/15 00:28:42;;;;;;;15.88;8.90;;;28.10;87.90;;;;;;5040591;28;20034;-47
2023/03/15 00:31:24;;;;;;;15.20;8.73;;;28.10;88.00;;;;;;5025568;28;20010;-48
2023/03/15 00:33:54;;;;;;;20.37;8.63;;;28.00;88.00;;;;;;5033488;28;20266;-53
2023/03/15 00:36:25;;;;;;;15.43;8.45;;;28.10;88.30;;;;;;5018820;28;20026;-48
2023/03/15 00:38:56;;;;;;;11.05;7.97;;;28.10;88.40;;;;;;5016479;28;20340;-49
2023/03/15 00:41:26;;;;;;;18.35;8.60;;;28.00;88.40;;;;;;5007657;28;20038;-53
2023/03/15 00:43:53;;;;;;;14.00;8.50;;;28.00;88.50;;;;;;5016980;28;20030;-51
2023/03/15 00:46:23;;;;;;;10.38;7.60;;;28.00;88.40;;;;;;5020993;28;20022;-46
2023/03/15 00:48:58;;;;;;;12.90;8.95;;;28.00;88.50;;;;;;5014645;28;20054;-57
2023/03/15 00:51:24;;;;;;;16.00;8.70;;;28.00;88.50;;;;;;4990232;28;20110;-49
2023/03/15 00:53:52;;;;;;;17.42;8.00;;;28.00;88.20;;;;;;5008099;28;20287;-51
2023/03/15 00:56:22;;;;;;;15.45;8.48;;;27.90;87.30;;;;;;5007272;28;20039;-44
2023/03/15 00:58:51;;;;;;;13.93;8.10;;;27.80;86.60;;;;;;5033419;28;20088;-44
2023/03/15 01:01:23;;;;;;;16.40;8.07;;;27.80;87.40;;;;;;5037960;28;20022;-56
2023/03/15 01:03:50;;;;;;;13.18;8.20;;;27.80;87.60;;;;;;5012650;28;20026;-56
2023/03/15 01:06:23;;;;;;;15.40;8.15;;;27.80;87.50;;;;;;5013611;28;20092;-58
2023/03/15 01:08:50;;;;;;;12.02;7.97;;;27.90;87.30;;;;;;4999609;28;20030;-52
2023/03/15 01:11:23;;;;;;;11.50;8.05;;;27.90;87.00;;;;;;5024754;28;20213;-54
2023/03/15 01:13:56;;;;;;;13.55;7.85;;;27.90;86.80;;;;;;5043712;28;20033;-54
2023/03/15 01:16:25;;;;;;;14.43;7.93;;;27.90;87.30;;;;;;5046936;28;20025;-54
2023/03/15 01:18:55;;;;;;;13.43;8.18;;;27.90;86.60;;;;;;5018759;28;20045;-53
2023/03/15 01:21:23;;;;;;;10.73;7.28;;;27.90;86.30;;;;;;5043130;28;20060;-51
2023/03/15 01:23:50;;;;;;;14.18;7.70;;;27.90;86.00;;;;;;5010135;28;20038;-51
2023/03/15 01:26:17;;;;;;;11.88;7.78;;;28.00;85.80;;;;;;5015219;28;20046;-52
2023/03/15 01:28:50;;;;;;;12.43;8.40;;;28.00;85.60;;;;;;5007261;28;20322;-58
2023/03/15 01:31:23;;;;;;;15.57;8.68;;;27.90;85.50;;;;;;5006791;28;20033;-54
2023/03/15 01:33:50;;;;;;;12.10;9.15;;;27.90;85.30;;;;;;5008511;28;20035;-53
2023/03/15 01:36:17;;;;;;;14.32;8.63;;;27.90;85.30;;;;;;5013670;28;20034;-52
2023/03/15 01:38:44;;;;;;;14.65;8.35;;;27.90;85.20;;;;;;5026202;28;20100;-51
2023/03/15 01:41:16;;;;;;;13.70;7.65;;;27.90;84.90;;;;;;5025928;28;20054;-52
2023/03/15 01:43:47;;;;;;;10.85;7.93;;;27.90;84.80;;;;;;5026740;28;20096;-54
2023/03/15 01:46:33;;;;;;;11.98;8.13;;;27.90;84.60;;;;;;5026461;28;20037;-59
2023/03/15 01:49:11;;;;;;;8.20;7.10;;;27.90;84.40;;;;;;5026618;28;20052;-54
2023/03/15 01:51:45;;;;;;;10.90;7.88;;;27.90;84.40;;;;;;5026284;28;20056;-52
2023/03/15 01:54:42;;;;;;;11.40;8.15;;;27.90;84.50;;;;;;5026542;28;20030;-52
2023/03/15 01:57:33;;;;;;;12.70;8.00;;;27.80;84.30;;;;;;5027815;28;20025;-52
2023/03/15 02:00:17;;;;;;;13.80;8.65;;;27.80;84.30;;;;;;5046212;28;20041;-53
2023/03/15 02:03:02;;;;;;;15.55;9.25;;;27.80;84.20;;;;;;5025452;28;20097;-52
2023/03/15 02:05:37;;;;;;;13.80;8.65;;;27.80;84.00;;;;;;5006383;28;20097;-51
2023/03/15 02:08:07;;;;;;;16.48;8.45;;;27.80;83.70;;;;;;5012402;28;20026;-53
2023/03/15 02:10:35;;;;;;;12.52;7.85;;;27.80;83.50;;;;;;5018959;28;20203;-51
2023/03/15 02:13:02;;;;;;;14.90;7.95;;;27.80;83.30;;;;;;5025535;28;20029;-52
2023/03/15 02:15:29;;;;;;;14.48;7.97;;;27.80;83.00;;;;;;5019705;28;20037;-52
2023/03/15 02:17:56;;;;;;;14.05;8.00;;;27.80;82.80;;;;;;5026304;28;20037;-59
2023/03/15 02:20:47;;;;;;;10.35;7.55;;;27.80;82.60;;;;;;5025658;28;20033;-55
2023/03/15 02:23:20;;;;;;;15.95;8.25;;;27.80;82.60;;;;;;5033313;28;20048;-56
2023/03/15 02:25:56;;;;;;;14.45;8.40;;;27.80;82.60;;;;;;5031121;28;20089;-52
2023/03/15 02:28:23;;;;;;;19.08;9.13;;;27.80;82.60;;;;;;5009973;28;20030;-54
2023/03/15 02:31:15;;;;;;;13.07;8.43;;;27.70;82.40;;;;;;5005881;28;20014;-52
2023/03/15 02:33:43;;;;;;;17.07;7.73;;;27.70;82.30;;;;;;5005722;28;20090;-58
2023/03/15 02:36:53;;;;;;;18.63;8.07;;;27.70;82.20;;;;;;5005702;28;20029;-52
2023/03/15 02:39:42;;;;;;;12.93;7.20;;;27.70;81.90;;;;;;4993928;28;20038;-52
2023/03/15 02:42:18;;;;;;;12.82;8.35;;;27.70;82.10;;;;;;4987824;28;20035;-54
2023/03/15 02:48:42;;;;;;;16.48;7.72;;;27.60;81.80;;;;;;4992745;28;20037;-55
2023/03/15 02:51:20;;;;;;;12.40;7.13;;;27.60;81.60;;;;;;5005281;28;20072;-50
2023/03/15 02:53:46;;;;;;;9.98;7.40;;;27.60;81.50;;;;;;5005094;28;20022;-54
2023/03/15 02:56:32;;;;;;;13.02;7.78;;;27.60;81.30;;;;;;5005572;28;20034;-54
2023/03/15 02:58:59;;;;;;;15.15;7.70;;;27.60;81.10;;;;;;5005258;28;20073;-53
2023/03/15 03:01:25;;;;;;;10.80;6.93;;;27.60;81.00;;;;;;5005896;28;20109;-54
2023/03/15 03:03:52;;;;;;;14.30;7.55;;;27.60;80.60;;;;;;5005074;28;20018;-53
2023/03/15 03:06:21;;;;;;;12.80;7.28;;;27.50;80.40;;;;;;5005367;28;20030;-53
2023/03/15 03:08:49;;;;;;;13.43;7.63;;;27.50;80.40;;;;;;5005041;28;20234;-55
2023/03/15 03:11:21;;;;;;;9.65;7.15;;;27.50;80.50;;;;;;5005213;28;20026;-53
2023/03/15 03:13:50;;;;;;;14.27;7.53;;;27.50;80.60;;;;;;5005100;28;20030;-54
2023/03/15 03:16:18;;;;;;;11.68;6.85;;;27.50;80.80;;;;;;5005205;28;20098;-53
2023/03/15 03:18:44;;;;;;;10.57;6.57;;;27.40;80.70;;;;;;5004572;28;20022;-52
2023/03/15 03:21:20;;;;;;;12.93;6.45;;;27.40;80.60;;;;;;5005223;28;20023;-54
2023/03/15 03:23:46;;;;;;;11.90;7.28;;;27.40;80.30;;;;;;5004674;28;20330;-46
2023/03/15 03:26:16;;;;;;;11.98;6.75;;;27.40;80.40;;;;;;5005007;28;20036;-55
2023/03/15 03:28:45;;;;;;;13.73;6.93;;;27.40;80.30;;;;;;4987264;28;20018;-54
2023/03/15 03:31:32;;;;;;;10.55;6.85;;;27.40;80.10;;;;;;5004776;28;20034;-54
2023/03/15 03:33:59;;;;;;;12.23;7.10;;;27.40;80.10;;;;;;5004181;28;20026;-53
2023/03/15 03:36:29;;;;;;;9.40;6.10;;;27.40;80.00;;;;;;5004926;28;20046;-58
2023/03/15 03:38:56;;;;;;;12.60;7.07;;;27.30;79.80;;;;;;5004491;28;20029;-54
2023/03/15 03:41:23;;;;;;;11.35;6.70;;;27.30;79.80;;;;;;5004355;28;20058;-53
2023/03/15 03:43:49;;;;;;;11.85;7.38;;;27.30;79.90;;;;;;5004344;28;20326;-59
2023/03/15 03:46:16;;;;;;;9.82;7.10;;;27.30;79.80;;;;;;5004886;28;20049;-56
2023/03/15 03:48:42;;;;;;;12.07;7.45;;;27.30;79.90;;;;;;5004528;28;20076;-55
2023/03/15 03:51:10;;;;;;;9.75;6.47;;;27.30;79.80;;;;;;5004772;28;20060;-50
2023/03/15 03:53:39;;;;;;;9.88;7.15;;;27.30;79.50;;;;;;5004315;28;20030;-55
2023/03/15 03:56:09;;;;;;;12.40;6.93;;;27.30;79.30;;;;;;5014465;28;20060;-53
2023/03/15 03:58:36;;;;;;;9.13;6.13;;;27.30;79.20;;;;;;5023906;28;20022;-54
2023/03/15 04:01:04;;;;;;;8.68;7.00;;;27.30;79.20;;;;;;5024544;28;20033;-60
2023/03/15 04:03:30;;;;;;;9.57;6.60;;;27.30;79.00;;;;;;5024078;28;20291;-52
2023/03/15 04:05:58;;;;;;;10.20;6.88;;;27.30;79.00;;;;;;5023706;28;20034;-54
2023/03/15 04:08:28;;;;;;;10.27;6.25;;;27.30;78.80;;;;;;5023909;28;20089;-54
2023/03/15 04:10:56;;;;;;;11.60;6.93;;;27.30;78.70;;;;;;5024267;28;20038;-52
2023/03/15 04:13:24;;;;;;;12.65;6.70;;;27.30;78.40;;;;;;5014588;28;20249;-56
2023/03/15 04:15:56;;;;;;;12.43;6.50;;;27.30;78.50;;;;;;5015101;28;20041;-54
2023/03/15 04:18:22;;;;;;;10.65;6.30;;;27.30;79.00;;;;;;5013125;28;20017;-54
2023/03/15 04:20:53;;;;;;;9.70;6.45;;;27.30;78.40;;;;;;5009126;28;20260;-54
2023/03/15 04:23:22;;;;;;;9.77;6.40;;;27.30;78.20;;;;;;5004119;28;20034;-54
2023/03/15 04:25:50;;;;;;;10.57;6.63;;;27.30;78.30;;;;;;5004434;28;20031;-56
2023/03/15 04:28:22;;;;;;;10.90;6.38;;;27.30;78.10;;;;;;5003888;28;20038;-52
2023/03/15 04:30:50;;;;;;;9.93;6.50;;;27.30;78.00;;;;;;4986759;28;20026;-52
2023/03/15 04:33:16;;;;;;;12.70;6.68;;;27.20;78.00;;;;;;5004220;28;20110;-56
2023/03/15 04:35:43;;;;;;;10.60;6.32;;;27.30;78.00;;;;;;5004378;28;20317;-55
2023/03/15 04:38:10;;;;;;;8.48;6.20;;;27.20;78.00;;;;;;5004286;28;20356;-52
2023/03/15 04:40:37;;;;;;;9.48;6.32;;;27.20;77.90;;;;;;5003772;28;20286;-49
2023/03/15 04:43:05;;;;;;;9.00;6.50;;;27.20;77.90;;;;;;5004068;28;20118;-56
2023/03/15 04:45:32;;;;;;;11.32;6.82;;;27.20;77.90;;;;;;5006194;28;20038;-64
2023/03/15 04:48:00;;;;;;;8.10;6.10;;;27.20;77.90;;;;;;5007322;28;20040;-50
2023/03/15 04:50:27;;;;;;;12.02;6.47;;;27.20;77.80;;;;;;5007315;28;20030;-55
2023/03/15 04:52:54;;;;;;;10.82;6.43;;;27.20;77.80;;;;;;5007474;28;20034;-53
2023/03/15 04:55:21;;;;;;;9.80;6.60;;;27.20;78.00;;;;;;5007408;28;20117;-48
2023/03/15 04:57:47;;;;;;;8.55;6.53;;;27.20;77.90;;;;;;5007431;28;20048;-55
2023/03/15 05:00:14;;;;;;;8.65;6.38;;;27.20;78.00;;;;;;5007623;28;20030;-60
2023/03/15 05:02:41;;;;;;;11.13;6.07;;;27.20;77.90;;;;;;5007294;28;20104;-51
2023/03/15 05:05:09;;;;;;;11.20;6.05;;;27.20;77.90;;;;;;5007290;28;20064;-52
2023/03/15 05:07:36;;;;;;;9.07;6.43;;;27.20;78.10;;;;;;5007038;28;20026;-53
2023/03/15 05:10:03;;;;;;;11.10;6.13;;;27.20;77.90;;;;;;5007541;28;20041;-55
2023/03/15 05:12:36;;;;;;;9.35;5.97;;;27.20;77.90;;;;;;5006992;28;20033;-52
2023/03/15 05:15:31;;;;;;;11.85;6.50;;;27.20;77.80;;;;;;5008021;28;20084;-54
2023/03/15 05:18:18;;;;;;;10.35;6.43;;;27.10;78.00;;;;;;5013887;28;20046;-51
2023/03/15 05:20:44;;;;;;;10.30;6.30;;;27.10;78.00;;;;;;5012565;28;20037;-54
2023/03/15 05:23:12;;;;;;;8.23;6.30;;;27.20;77.70;;;;;;5025621;28;20069;-52
2023/03/15 05:25:39;;;;;;;10.85;7.00;;;27.10;77.80;;;;;;5026305;28;20029;-58
2023/03/15 05:28:06;;;;;;;11.25;6.63;;;27.20;77.90;;;;;;5021162;28;20034;-51
2023/03/15 05:30:32;;;;;;;9.70;6.70;;;27.10;78.00;;;;;;5018117;28;20033;-54
2023/03/15 05:33:03;;;;;;;10.20;6.28;;;27.10;77.80;;;;;;5016741;28;20026;-53
2023/03/15 05:35:33;;;;;;;9.13;6.78;;;27.10;77.70;;;;;;5016738;28;20036;-58
2023/03/15 05:38:04;;;;;;;11.02;6.72;;;27.10;77.50;;;;;;5009008;28;20026;-59
2023/03/15 05:40:49;;;;;;;11.65;6.53;;;27.10;77.50;;;;;;4995497;28;20050;-56
2023/03/15 05:43:16;;;;;;;11.73;6.10;;;27.20;77.40;;;;;;5016963;28;20022;-57
2023/03/15 05:45:43;;;;;;;10.82;6.28;;;27.10;77.40;;;;;;5006887;28;20041;-62
2023/03/15 05:48:10;;;;;;;8.18;6.18;;;27.10;77.30;;;;;;5006215;28;20046;-53
2023/03/15 05:50:36;;;;;;;11.43;6.65;;;27.10;77.50;;;;;;5006919;28;20026;-52
2023/03/15 05:53:03;;;;;;;9.82;6.55;;;27.10;77.30;;;;;;5006479;28;20026;-54
2023/03/15 05:55:30;;;;;;;15.77;7.18;;;27.10;77.30;;;;;;5006283;28;20026;-59
2023/03/15 05:58:02;;;;;;;10.93;6.60;;;27.10;77.20;;;;;;5006229;28;20053;-53
2023/03/15 06:00:29;;;;;;;11.00;6.57;;;27.10;77.20;;;;;;5006589;28;20030;-56
2023/03/15 06:02:56;;;;;;;10.80;6.30;;;27.10;77.00;;;;;;5006683;28;20038;-55
2023/03/15 06:05:22;;;;;;;10.32;6.55;;;27.10;77.10;;;;;;5007614;28;20042;-55
2023/03/15 06:07:49;;;;;;;7.60;6.60;;;27.10;77.00;;;;;;5006408;28;20018;-57
2023/03/15 06:10:16;;;;;;;11.18;6.95;;;27.10;76.80;;;;;;5006334;28;20214;-54
2023/03/15 06:12:43;;;;;;;8.88;6.20;;;27.10;77.00;;;;;;5006053;28;20306;-54
2023/03/15 06:15:10;;;;;;;8.80;6.53;;;27.10;76.90;;;;;;5006419;28;20030;-53
2023/03/15 06:17:38;;;;;;;10.38;6.70;;;27.10;76.80;;;;;;5005691;28;20041;-52
2023/03/15 06:20:05;;;;;;;8.68;5.80;;;27.10;76.90;;;;;;5006229;28;20030;-52
2023/03/15 06:22:32;;;;;;;11.50;6.40;;;27.10;76.70;;;;;;5005804;28;20041;-52
2023/03/15 06:24:58;;;;;;;9.02;6.63;;;27.10;76.60;;;;;;5005935;28;20187;-55
2023/03/15 06:27:25;;;;;;;12.93;6.68;;;27.10;76.70;;;;;;5005644;28;20223;-54
2023/03/15 06:29:52;;;;;;;10.15;6.63;;;27.10;76.70;;;;;;5006066;28;20031;-52
2023/03/15 06:32:19;;;;;;;8.57;6.50;;;27.10;76.80;;;;;;5005398;28;20026;-52
2023/03/15 06:34:45;;;;;;;10.82;6.65;;;27.10;76.70;;;;;;5005838;28;20034;-52
2023/03/15 06:37:12;;;;;;;9.65;6.20;;;27.10;76.60;;;;;;5005525;28;20089;-52
2023/03/15 06:39:39;;;;;;;10.35;6.18;;;27.10;76.60;;;;;;5005314;28;20065;-53
2023/03/15 06:42:09;;;;;;;9.65;6.40;;;27.10;76.40;;;;;;5005594;28;20397;-53
2023/03/15 06:44:36;;;;;;;12.32;6.47;;;27.10;76.50;;;;;;5005580;28;20149;-51
2023/03/15 06:47:02;;;;;;;8.15;6.25;;;27.10;76.40;;;;;;5005235;28;20038;-55
2023/03/15 06:49:29;;;;;;;12.40;6.82;;;27.10;76.60;;;;;;5005215;28;20052;-53
2023/03/15 06:51:56;;;;;;;11.77;6.60;;;27.10;76.60;;;;;;5005326;28;20034;-53
2023/03/15 06:54:23;;;;;;;11.25;6.85;;;27.10;76.60;;;;;;5005273;28;20051;-54
2023/03/15 06:56:50;;;;;;;8.48;6.32;;;27.10;76.70;;;;;;5005244;28;20322;-60
2023/03/15 06:59:17;;;;;;;10.38;6.40;;;27.10;76.70;;;;;;5005168;28;20030;-53
2023/03/15 07:01:43;;;;;;;9.30;6.43;;;27.10;76.80;;;;;;5004865;28;20033;-55
2023/03/15 07:04:10;;;;;;;10.75;7.25;;;27.00;76.90;;;;;;5005334;28;20034;-57
2023/03/15 07:06:37;;;;;;;10.90;6.57;;;27.00;76.90;;;;;;5004845;28;20093;-55
2023/03/15 07:09:04;;;;;;;11.13;6.50;;;27.00;77.00;;;;;;5004718;28;20069;-55
2023/03/15 07:11:34;;;;;;;11.15;6.72;;;27.00;76.90;;;;;;5005061;28;20048;-52
2023/03/15 07:14:01;;;;;;;13.13;6.95;;;27.00;77.00;;;;;;5004992;28;20295;-51
2023/03/15 07:16:28;;;;;;;10.13;6.97;;;27.00;77.10;;;;;;5010736;28;20036;-51
2023/03/15 07:18:55;;;;;;;11.25;7.20;;;27.00;77.70;;;;;;5017157;28;20033;-52
2023/03/15 07:21:22;;;;;;;10.15;6.60;;;27.00;77.20;;;;;;5004894;28;20026;-56
2023/03/15 07:23:48;;;;;;;13.75;6.88;;;27.00;77.10;;;;;;5004889;28;20034;-56
2023/03/15 07:26:15;;;;;;;9.50;7.22;;;27.00;77.10;;;;;;5004577;28;20048;-56
2023/03/15 07:28:43;;;;;;;10.57;7.28;;;26.90;77.20;;;;;;5004897;28;20034;-52
2023/03/15 07:31:11;;;;;;;10.60;6.90;;;27.00;77.40;;;;;;5004488;28;20019;-55
2023/03/15 07:33:38;;;;;;;11.23;6.50;;;26.90;77.20;;;;;;5004708;28;20031;-58
2023/03/15 07:36:06;;;;;;;12.27;7.40;;;26.90;77.10;;;;;;5004902;28;20033;-53
2023/03/15 07:38:35;;;;;;;12.27;7.07;;;26.90;77.10;;;;;;5004366;28;20030;-53
2023/03/15 07:41:03;;;;;;;12.93;6.85;;;26.90;77.30;;;;;;5004418;28;20042;-53
2023/03/15 07:43:30;;;;;;;9.25;7.10;;;26.90;77.50;;;;;;5004467;28;20037;-52
2023/03/15 07:45:57;;;;;;;12.35;7.18;;;26.90;77.60;;;;;;4986938;28;20030;-53
2023/03/15 07:48:23;;;;;;;9.02;6.72;;;26.90;77.60;;;;;;5004272;28;20034;-55
2023/03/15 07:50:50;;;;;;;10.98;7.60;;;26.90;77.60;;;;;;5004447;28;20053;-57
2023/03/15 07:53:17;;;;;;;9.40;6.22;;;26.90;77.80;;;;;;5004224;28;20104;-53
2023/03/15 07:55:45;;;;;;;10.85;8.00;;;26.90;77.90;;;;;;5004628;28;20334;-56
2023/03/15 07:58:12;;;;;;;13.85;7.30;;;26.90;77.70;;;;;;5004265;28;20234;-53
2023/03/15 08:00:39;;;;;;;15.10;7.38;;;26.90;77.60;;;;;;5005401;28;20300;-55
2023/03/15 08:03:06;;;;;;;12.05;7.68;;;26.90;77.80;;;;;;5014537;28;20054;-53
2023/03/15 08:05:34;;;;;;;11.75;7.32;;;26.90;77.80;;;;;;5004668;28;20113;-51
2023/03/15 08:08:00;;;;;;;15.13;7.32;;;26.90;78.00;;;;;;5004074;28;20074;-53
2023/03/15 08:10:27;;;;;;;9.10;7.15;;;26.90;78.10;;;;;;5004705;28;20034;-53
2023/03/15 08:12:54;;;;;;;11.95;7.63;;;26.90;78.10;;;;;;5004274;28;20052;-54
2023/03/15 08:15:20;;;;;;;11.40;7.70;;;26.90;78.10;;;;;;5004657;28;20085;-53
2023/03/15 08:17:47;;;;;;;11.93;7.55;;;26.80;78.00;;;;;;5004128;28;20030;-52
2023/03/15 08:20:18;;;;;;;12.90;7.28;;;26.90;78.10;;;;;;5007945;28;20060;-54
2023/03/15 08:22:46;;;;;;;10.60;7.25;;;26.90;78.00;;;;;;5007944;28;20038;-54
2023/03/15 08:25:16;;;;;;;9.88;7.53;;;26.90;78.10;;;;;;5008371;28;20081;-55
2023/03/15 08:27:43;;;;;;;9.40;7.43;;;26.80;78.20;;;;;;5008077;28;20045;-53
2023/03/15 08:30:11;;;;;;;12.18;7.65;;;26.90;78.30;;;;;;5008294;28;20345;-57
2023/03/15 08:32:39;;;;;;;8.88;7.40;;;26.80;78.40;;;;;;5007721;28;20365;-53
2023/03/15 08:35:07;;;;;;;9.10;7.20;;;26.80;78.20;;;;;;5007647;28;20034;-54
2023/03/15 08:37:34;;;;;;;10.00;7.30;;;26.80;78.50;;;;;;5007808;28;20030;-52
2023/03/15 08:40:04;;;;;;;12.30;7.47;;;26.80;78.10;;;;;;5007977;28;20038;-56
2023/03/15 08:42:31;;;;;;;14.18;7.45;;;26.80;78.00;;;;;;5007825;28;20199;-54
2023/03/15 08:44:58;;;;;;;12.27;7.45;;;26.80;78.10;;;;;;5012171;28;20030;-52
2023/03/15 08:47:25;;;;;;;10.70;7.57;;;26.80;78.10;;;;;;5023401;28;20178;-53
2023/03/15 08:49:52;;;;;;;11.05;7.60;;;26.80;78.30;;;;;;5019245;28;20026;-53
2023/03/15 08:52:20;;;;;;;8.65;7.05;;;26.70;78.30;;;;;;5026958;28;20084;-53
2023/03/15 08:54:47;;;;;;;12.15;7.65;;;26.70;78.30;;;;;;5008475;28;20022;-56
2023/03/15 08:57:14;;;;;;;12.18;7.40;;;26.70;78.30;;;;;;5013230;28;20089;-52
2023/03/15 08:59:40;;;;;;;13.75;7.47;;;26.70;78.30;;;;;;5025092;28;20037;-55
2023/03/15 09:02:10;;;;;;;12.77;7.45;;;26.70;78.50;;;;;;5026847;28;20030;-55
2023/03/15 09:04:37;;;;;;;10.77;7.70;;;26.70;78.60;;;;;;5024203;28;20034;-53
2023/03/15 09:07:04;;;;;;;14.93;8.00;;;26.70;78.80;;;;;;5013738;28;20018;-55
2023/03/15 09:09:32;;;;;;;11.40;7.43;;;26.70;78.80;;;;;;5017527;28;20026;-50
2023/03/15 09:11:59;;;;;;;12.40;7.45;;;26.60;79.00;;;;;;5018085;28;20064;-51
2023/03/15 09:14:25;;;;;;;11.93;8.05;;;26.60;79.30;;;;;;5026811;28;20026;-57
2023/03/15 09:16:52;;;;;;;11.20;8.13;;;26.60;79.40;;;;;;5026828;28;20034;-51
2023/03/15 09:19:18;;;;;;;11.50;7.75;;;26.60;79.50;;;;;;5026500;28;20033;-51
2023/03/15 09:21:46;;;;;;;11.65;7.68;;;26.60;79.60;;;;;;5026441;28;20060;-50
2023/03/15 09:24:13;;;;;;;9.13;7.63;;;26.60;79.70;;;;;;5026811;28;20213;-51
2023/03/15 09:26:39;;;;;;;12.80;8.82;;;26.60;79.70;;;;;;5026442;28;20022;-51
2023/03/15 09:29:08;;;;;;;10.93;7.82;;;26.50;79.50;;;;;;5026363;28;20037;-56
2023/03/15 09:31:35;;;;;;;11.68;8.02;;;26.50;79.60;;;;;;5025643;28;20018;-54
2023/03/15 09:34:02;;;;;;;16.15;8.32;;;26.50;79.70;;;;;;5020100;28;20037;-53
2023/03/15 09:36:28;;;;;;;11.15;8.20;;;26.50;79.80;;;;;;5006532;28;20021;-57
2023/03/15 09:38:55;;;;;;;14.13;7.60;;;26.50;79.70;;;;;;5006815;28;20045;-56
2023/03/15 09:41:42;;;;;;;11.90;8.45;;;26.40;79.90;;;;;;5006387;28;20397;-54
2023/03/15 09:44:11;;;;;;;14.60;8.52;;;26.40;80.00;;;;;;5006866;28;20105;-57
2023/03/15 09:46:52;;;;;;;11.70;8.30;;;26.40;80.10;;;;;;5006378;28;20030;-56
2023/03/15 09:49:31;;;;;;;11.98;8.05;;;26.40;80.10;;;;;;5006481;28;20110;-58
2023/03/15 09:52:08;;;;;;;13.18;8.27;;;26.40;80.20;;;;;;5006405;28;20318;-54
2023/03/15 09:54:49;;;;;;;12.77;8.35;;;26.40;80.20;;;;;;5006228;28;20066;-54
2023/03/15 09:57:35;;;;;;;11.68;8.02;;;26.40;80.30;;;;;;5010520;28;20285;-54
2023/03/15 10:00:10;;;;;;;11.55;8.40;;;26.40;80.30;;;;;;5021075;28;20101;-52
2023/03/15 10:02:42;;;;;;;12.35;8.25;;;26.30;80.30;;;;;;5025827;28;20084;-51
2023/03/15 10:05:27;;;;;;;12.38;8.48;;;26.30;80.40;;;;;;5025660;28;20206;-51
2023/03/15 10:07:54;;;;;;;13.20;8.50;;;26.30;80.50;;;;;;5025664;28;20041;-52
2023/03/15 10:10:27;;;;;;;12.38;7.60;;;26.30;80.60;;;;;;5025956;28;20045;-51
2023/03/15 10:13:37;;;;;;;11.98;8.20;;;26.30;80.70;;;;;;5025593;28;20120;-52
2023/03/15 10:16:16;;;;;;;11.85;8.13;;;26.30;80.90;;;;;;5000405;28;20037;-55
2023/03/15 10:19:11;;;;;;;13.32;8.10;;;26.20;80.80;;;;;;5025338;28;20034;-54
2023/03/15 10:21:56;;;;;;;12.75;8.20;;;26.30;81.00;;;;;;5025216;28;20253;-51
2023/03/15 10:24:39;;;;;;;10.43;7.97;;;26.20;81.00;;;;;;5025603;28;20061;-52
2023/03/15 10:27:32;;;;;;;16.45;8.40;;;26.20;81.10;;;;;;5025030;28;20049;-56
2023/03/15 10:30:00;;;;;;;12.00;7.80;;;26.20;81.10;;;;;;4990423;28;20042;-56
2023/03/15 10:32:39;;;;;;;11.95;8.90;;;26.20;81.10;;;;;;5025036;28;20132;-53
2023/03/15 10:35:14;;;;;;;11.00;8.32;;;26.20;81.20;;;;;;5025172;28;20034;-53
2023/03/15 10:37:42;;;;;;;12.10;8.82;;;26.20;81.20;;;;;;5007742;28;20064;-53
2023/03/15 10:40:15;;;;;;;11.18;7.88;;;26.20;81.20;;;;;;5018409;28;20222;-55
2023/03/15 10:42:44;;;;;;;11.35;9.30;;;26.20;81.20;;;;;;5004396;28;20093;-56
2023/03/15 10:45:18;;;;;;;12.30;8.98;;;26.20;81.30;;;;;;5005698;28;20112;-56
2023/03/15 10:47:47;;;;;;;13.02;9.32;;;26.20;81.40;;;;;;5039054;28;20017;-54
2023/03/15 10:50:43;;;;;;;10.73;9.02;;;26.20;81.30;;;;;;5045060;28;20041;-58
2023/03/15 10:53:20;;;;;;;12.40;9.65;;;26.20;81.30;;;;;;5043560;28;20081;-53
2023/03/15 10:56:20;;;;;;;13.68;8.98;;;26.20;81.20;;;;;;5027287;28;20037;-55
2023/03/15 10:58:48;;;;;;;16.00;9.07;;;26.20;81.10;;;;;;5025516;28;20025;-52
2023/03/15 11:01:27;;;;;;;15.55;8.85;;;26.20;81.10;;;;;;5036229;28;20045;-53
2023/03/15 11:04:15;;;;;;;13.52;8.90;;;26.20;81.00;;;;;;5044376;28;20020;-52
2023/03/15 11:06:53;;;;;;;14.98;9.27;;;26.20;81.00;;;;;;5044289;28;20037;-52
2023/03/15 11:09:22;;;;;;;16.38;9.30;;;26.20;81.00;;;;;;5044307;28;20095;-52
2023/03/15 11:11:50;;;;;;;15.75;9.73;;;26.20;80.90;;;;;;5028360;28;20057;-54
2023/03/15 11:14:18;;;;;;;17.77;9.52;;;26.30;80.90;;;;;;5008913;28;20081;-48
2023/03/15 11:16:58;;;;;;;15.75;10.05;;;26.20;80.90;;;;;;5033533;28;20029;-53
2023/03/15 11:19:31;;;;;;;17.98;10.38;;;26.20;81.50;;;;;;5042999;28;20037;-53
2023/03/15 11:22:00;;;;;;;16.95;10.15;;;26.30;81.50;;;;;;5037759;28;20061;-54
2023/03/15 11:24:32;;;;;;;19.73;10.50;;;26.30;81.70;;;;;;5044315;28;20258;-56
2023/03/15 11:27:01;;;;;;;22.50;10.95;;;26.30;81.60;;;;;;5019220;28;20033;-54
2023/03/15 11:29:31;;;;;;;22.67;11.32;;;26.30;81.60;;;;;;5004958;28;20303;-53
2023/03/15 11:32:01;;;;;;;27.20;11.63;;;26.30;81.70;;;;;;5007204;28;20026;-49
2023/03/15 11:34:45;;;;;;;36.40;12.20;;;26.30;81.90;;;;;;5007182;28;20204;-48
2023/03/15 11:37:34;;;;;;;29.50;11.40;;;26.30;82.30;;;;;;5003940;28;20030;-50
2023/03/15 11:40:11;;;;;;;23.02;11.73;;;26.30;82.00;;;;;;5003889;28;20041;-47
2023/03/15 11:42:47;;;;;;;19.75;10.90;;;26.20;81.90;;;;;;5004724;28;20112;-52
2023/03/15 11:45:23;;;;;;;19.80;11.00;;;26.20;81.90;;;;;;5005128;28;20036;-50
2023/03/15 11:47:59;;;;;;;15.43;10.45;;;26.30;82.10;;;;;;5005277;28;20085;-54
2023/03/15 11:50:26;;;;;;;21.23;10.98;;;26.30;82.50;;;;;;5004685;28;20030;-51
2023/03/15 11:52:53;;;;;;;16.73;10.20;;;26.30;82.50;;;;;;5003724;28;20023;-46
2023/03/15 11:55:26;;;;;;;13.38;10.50;;;26.20;82.30;;;;;;5011316;28;20085;-48
2023/03/15 11:57:53;;;;;;;20.55;10.38;;;26.20;82.40;;;;;;5011937;28;20022;-49
2023/03/15 12:00:35;;;;;;;17.20;10.60;;;26.30;82.70;;;;;;5011476;28;20226;-48
2023/03/15 12:03:34;;;;;;;20.73;11.00;;;26.30;82.90;;;;;;5011400;28;20101;-50
2023/03/15 12:06:16;;;;;;;15.63;10.77;;;26.30;83.40;;;;;;5011438;28;20042;-47
2023/03/15 12:08:50;;;;;;;18.95;10.90;;;26.30;83.10;;;;;;5011646;28;20019;-48
2023/03/15 12:11:19;;;;;;;17.33;10.40;;;26.30;83.10;;;;;;5011507;28;20038;-47
2023/03/15 12:13:58;;;;;;;14.93;10.90;;;26.30;83.20;;;;;;5011394;28;20175;-46
2023/03/15 12:16:30;;;;;;;16.10;11.07;;;26.30;83.50;;;;;;5011815;28;20062;-49
2023/03/15 12:19:00;;;;;;;16.40;10.65;;;26.30;83.60;;;;;;5011423;28;20121;-46
2023/03/15 12:21:38;;;;;;;18.50;10.75;;;26.30;83.70;;;;;;5011885;28;20034;-48
2023/03/15 12:24:23;;;;;;;17.40;11.70;;;26.30;84.10;;;;;;5011663;28;20014;-52
2023/03/15 12:26:59;;;;;;;19.05;11.32;;;26.30;84.20;;;;;;5011772;28;20209;-46
2023/03/15 12:29:28;;;;;;;18.60;10.73;;;26.30;84.20;;;;;;5011474;28;20015;-48
2023/03/15 12:32:05;;;;;;;17.95;10.93;;;26.30;84.20;;;;;;5011196;28;20258;-46
2023/03/15 12:34:46;;;;;;;19.10;11.13;;;26.30;84.70;;;;;;5011227;28;20018;-47
2023/03/15 12:37:23;;;;;;;14.98;10.88;;;26.30;85.10;;;;;;5011469;28;20289;-48
2023/03/15 12:40:00;;;;;;;16.90;11.18;;;26.30;85.10;;;;;;5011279;28;20068;-49
2023/03/15 12:42:30;;;;;;;19.73;11.23;;;26.30;85.60;;;;;;5011636;28;20076;-48
2023/03/15 12:45:15;;;;;;;14.25;10.63;;;26.30;85.60;;;;;;5011415;28;20069;-53
2023/03/15 12:47:51;;;;;;;20.08;11.15;;;26.30;85.50;;;;;;5011162;28;20042;-49
2023/03/15 12:50:36;;;;;;;17.25;10.40;;;26.30;85.50;;;;;;5011056;28;20197;-47
2023/03/15 12:53:13;;;;;;;16.27;10.35;;;26.20;85.70;;;;;;5011316;28;20171;-45
2023/03/15 12:55:40;;;;;;;19.55;11.05;;;26.20;85.70;;;;;;5011342;28;20033;-47
2023/03/15 12:58:11;;;;;;;16.23;10.00;;;26.20;86.00;;;;;;5011063;28;20026;-52
2023/03/15 13:00:41;;;;;;;15.82;10.65;;;26.20;86.20;;;;;;5011004;28;20064;-47
2023/03/15 13:03:15;;;;;;;17.02;10.02;;;26.20;86.30;;;;;;5011005;28;20018;-50